createdAt,value
2018-06-19T00:02:00.000Z,20.2
2018-06-19T00:07:00.000Z,20.2
2018-06-19T00:12:00.000Z,20.1
2018-06-19T00:17:00.000Z,20.1
2018-06-19T00:22:00.000Z,20.0
2018-06-19T00:27:00.000Z,20.0
2018-06-19T00:32:00.000Z,19.9
2018-06-19T00:37:00.000Z,19.9
2018-06-19T00:42:00.000Z,19.9
2018-06-19T00:47:00.000Z,19.8
2018-06-19T00:52:00.000Z,19.8
2018-06-19T00:57:00.000Z,19.8
2018-06-19T01:02:00.000Z,19.7
2018-06-19T01:07:00.000Z,19.7
2018-06-19T01:12:00.000Z,19.7
2018-06-19T01:17:00.000Z,19.6
2018-06-19T01:22:00.000Z,19.6
2018-06-19T01:27:00.000Z,19.6
2018-06-19T01:32:00.000Z,19.5
2018-06-19T01:37:00.000Z,19.5
2018-06-19T01:42:00.000Z,19.4
2018-06-19T01:47:00.000Z,19.4
2018-06-19T01:52:00.000Z,19.3
2018-06-19T01:57:00.000Z,19.3
2018-06-19T02:03:00.000Z,19.2
2018-06-19T02:08:00.000Z,19.2
2018-06-19T02:13:00.000Z,19.1
2018-06-19T02:18:00.000Z,19.0
2018-06-19T02:23:00.000Z,19.0
2018-06-19T02:28:00.000Z,18.9
2018-06-19T02:33:00.000Z,18.9
2018-06-19T02:38:00.000Z,18.8
2018-06-19T02:43:00.000Z,18.8
2018-06-19T02:48:00.000Z,18.7
2018-06-19T02:53:00.000Z,18.7
2018-06-19T02:58:00.000Z,18.7
2018-06-19T03:03:00.000Z,18.7
2018-06-19T03:08:00.000Z,18.7
2018-06-19T03:13:00.000Z,18.6
2018-06-19T03:18:00.000Z,18.6
2018-06-19T03:23:00.000Z,18.6
2018-06-19T03:28:00.000Z,18.5
2018-06-19T03:33:00.000Z,18.5
2018-06-19T03:38:00.000Z,18.5
2018-06-19T03:43:00.000Z,18.5
2018-06-19T03:48:00.000Z,18.5
2018-06-19T03:53:00.000Z,18.5
2018-06-19T03:58:00.000Z,18.6
2018-06-19T04:03:00.000Z,18.6
2018-06-19T04:08:00.000Z,18.7
2018-06-19T04:13:00.000Z,18.8
2018-06-19T04:18:00.000Z,18.8
2018-06-19T04:23:00.000Z,18.9
2018-06-19T04:28:00.000Z,19.0
2018-06-19T04:33:00.000Z,19.0
2018-06-19T04:38:00.000Z,19.1
2018-06-19T04:43:00.000Z,19.2
2018-06-19T04:48:00.000Z,19.3
2018-06-19T04:53:00.000Z,19.4
2018-06-19T04:58:00.000Z,19.5
2018-06-19T05:03:00.000Z,19.6
2018-06-19T05:08:00.000Z,19.7
2018-06-19T05:13:00.000Z,19.9
2018-06-19T05:18:00.000Z,20.0
2018-06-19T05:23:00.000Z,20.2
2018-06-19T05:28:00.000Z,20.4
2018-06-19T05:33:00.000Z,20.6
2018-06-19T05:38:00.000Z,20.7
2018-06-19T05:43:00.000Z,20.9
2018-06-19T05:48:00.000Z,21.1
2018-06-19T05:53:00.000Z,21.2
2018-06-19T05:58:00.000Z,21.3
2018-06-19T06:03:00.000Z,21.5
2018-06-19T06:08:00.000Z,21.6
2018-06-19T06:13:00.000Z,21.7
2018-06-19T06:18:00.000Z,21.9
2018-06-19T06:23:00.000Z,21.9
2018-06-19T06:28:00.000Z,22.0
2018-06-19T06:33:00.000Z,22.1
2018-06-19T06:38:00.000Z,22.2
2018-06-19T06:43:00.000Z,22.4
2018-06-19T06:48:00.000Z,22.9
2018-06-19T06:53:00.000Z,23.3
2018-06-19T06:58:00.000Z,23.6
2018-06-19T07:03:00.000Z,24.2
2018-06-19T07:08:00.000Z,24.7
2018-06-19T07:13:00.000Z,25.1
2018-06-19T07:18:00.000Z,25.4
2018-06-19T07:23:00.000Z,25.8
2018-06-19T07:28:00.000Z,26.2
2018-06-19T07:34:00.000Z,26.5
2018-06-19T07:39:00.000Z,26.6
2018-06-19T07:44:00.000Z,26.7
2018-06-19T07:49:00.000Z,27.0
2018-06-19T07:54:00.000Z,27.2
2018-06-19T07:59:00.000Z,27.4
2018-06-19T08:04:00.000Z,27.5
2018-06-19T08:09:00.000Z,27.8
2018-06-19T08:14:00.000Z,28.3
2018-06-19T08:19:00.000Z,28.1
2018-06-19T08:24:00.000Z,27.7
2018-06-19T08:29:00.000Z,27.7
2018-06-19T08:34:00.000Z,27.8
2018-06-19T08:39:00.000Z,28.0
2018-06-19T08:44:00.000Z,28.1
2018-06-19T08:49:00.000Z,28.1
2018-06-19T08:54:00.000Z,28.3
2018-06-19T08:59:00.000Z,28.8
2018-06-19T09:04:00.000Z,28.7
2018-06-19T09:09:00.000Z,28.7
2018-06-19T09:14:00.000Z,28.9
2018-06-19T09:19:00.000Z,29.1
2018-06-19T09:24:00.000Z,28.7
2018-06-19T09:29:00.000Z,29.0
2018-06-19T09:34:00.000Z,28.9
2018-06-19T09:39:00.000Z,28.5
2018-06-19T09:44:00.000Z,28.0
2018-06-19T09:49:00.000Z,27.9
2018-06-19T09:54:00.000Z,27.6
2018-06-19T09:59:00.000Z,27.2
2018-06-19T10:04:00.000Z,26.7
2018-06-19T10:09:00.000Z,27.0
2018-06-19T10:14:00.000Z,27.5
2018-06-19T10:19:00.000Z,27.4
2018-06-19T10:24:00.000Z,27.3
2018-06-19T10:29:00.000Z,28.0
2018-06-19T10:34:00.000Z,27.7
2018-06-19T10:39:00.000Z,27.3
2018-06-19T10:44:00.000Z,27.6
2018-06-19T10:49:00.000Z,28.3
2018-06-19T10:54:00.000Z,28.7
2018-06-19T10:59:00.000Z,28.9
2018-06-19T11:04:00.000Z,28.6
2018-06-19T11:09:00.000Z,28.8
2018-06-19T11:14:00.000Z,28.9
2018-06-19T11:19:00.000Z,28.4
2018-06-19T11:24:00.000Z,28.0
2018-06-19T11:29:00.000Z,28.1
2018-06-19T11:34:00.000Z,28.2
2018-06-19T11:39:00.000Z,27.9
2018-06-19T11:44:00.000Z,27.9
2018-06-19T11:49:00.000Z,28.2
2018-06-19T11:54:00.000Z,28.5
2018-06-19T11:59:00.000Z,28.4
2018-06-19T12:04:00.000Z,28.2
2018-06-19T12:09:00.000Z,28.2
2018-06-19T12:14:00.000Z,28.5
2018-06-19T12:19:00.000Z,28.6
2018-06-19T12:24:00.000Z,28.7
2018-06-19T12:29:00.000Z,28.6
2018-06-19T12:34:00.000Z,28.2
2018-06-19T12:39:00.000Z,28.0
2018-06-19T12:44:00.000Z,28.2
2018-06-19T12:49:00.000Z,28.5
2018-06-19T12:54:00.000Z,28.7
2018-06-19T12:59:00.000Z,29.0
2018-06-19T13:04:00.000Z,29.1
2018-06-19T13:09:00.000Z,29.1
2018-06-19T13:14:00.000Z,29.1
2018-06-19T13:19:00.000Z,29.4
2018-06-19T13:24:00.000Z,29.4
2018-06-19T13:29:00.000Z,29.5
2018-06-19T13:34:00.000Z,29.5
2018-06-19T13:40:00.000Z,29.1
2018-06-19T13:45:00.000Z,29.2
2018-06-19T13:50:00.000Z,29.2
2018-06-19T13:55:00.000Z,29.3
2018-06-19T14:00:00.000Z,29.7
2018-06-19T14:05:00.000Z,29.7
2018-06-19T14:10:00.000Z,29.8
2018-06-19T14:15:00.000Z,29.6
2018-06-19T14:20:00.000Z,29.2
2018-06-19T14:25:00.000Z,29.1
2018-06-19T14:30:00.000Z,29.1
2018-06-19T14:35:00.000Z,29.4
2018-06-19T14:40:00.000Z,29.6
2018-06-19T14:45:00.000Z,29.3
2018-06-19T14:50:00.000Z,29.0
2018-06-19T14:55:00.000Z,28.5
2018-06-19T15:00:00.000Z,28.4
2018-06-19T15:05:00.000Z,28.6
2018-06-19T15:10:00.000Z,28.8
2018-06-19T15:15:00.000Z,28.6
2018-06-19T15:20:00.000Z,28.7
2018-06-19T15:25:00.000Z,28.5
2018-06-19T15:30:00.000Z,28.5
2018-06-19T15:35:00.000Z,28.5
2018-06-19T15:40:00.000Z,28.5
2018-06-19T15:45:00.000Z,28.4
2018-06-19T15:50:00.000Z,28.4
2018-06-19T15:55:00.000Z,28.3
2018-06-19T16:00:00.000Z,28.4
2018-06-19T16:05:00.000Z,28.4
2018-06-19T16:10:00.000Z,28.3
2018-06-19T16:15:00.000Z,28.2
2018-06-19T16:20:00.000Z,28.1
2018-06-19T16:25:00.000Z,28.1
2018-06-19T16:30:00.000Z,28.0
2018-06-19T16:35:00.000Z,27.9
2018-06-19T16:40:00.000Z,27.7
2018-06-19T16:45:00.000Z,27.5
2018-06-19T16:50:00.000Z,27.3
2018-06-19T16:55:00.000Z,27.2
2018-06-19T17:00:00.000Z,27.1
2018-06-19T17:05:00.000Z,27.1
2018-06-19T17:10:00.000Z,27.0
2018-06-19T17:15:00.000Z,26.9
2018-06-19T17:20:00.000Z,26.8
2018-06-19T17:25:00.000Z,26.8
2018-06-19T17:30:00.000Z,26.7
2018-06-19T17:35:00.000Z,26.7
2018-06-19T17:40:00.000Z,26.6
2018-06-19T17:45:00.000Z,26.4
2018-06-19T17:50:00.000Z,26.3
2018-06-19T17:55:00.000Z,26.1
2018-06-19T18:00:00.000Z,26.0
2018-06-19T18:05:00.000Z,25.9
2018-06-19T18:10:00.000Z,25.8
2018-06-19T18:15:00.000Z,25.6
2018-06-19T18:20:00.000Z,25.5
2018-06-19T18:25:00.000Z,25.4
2018-06-19T18:30:00.000Z,25.3
2018-06-19T18:35:00.000Z,25.2
2018-06-19T18:40:00.000Z,25.1
2018-06-19T18:45:00.000Z,25.1
2018-06-19T18:50:00.000Z,25.0
2018-06-19T18:55:00.000Z,24.9
2018-06-19T19:00:00.000Z,24.8
2018-06-19T19:05:00.000Z,24.7
2018-06-19T19:10:00.000Z,24.6
2018-06-19T19:15:00.000Z,24.5
2018-06-19T19:20:00.000Z,24.4
2018-06-19T19:25:00.000Z,24.3
2018-06-19T19:30:00.000Z,24.2
2018-06-19T19:41:00.000Z,24.1
2018-06-19T19:46:00.000Z,24.0
2018-06-19T19:51:00.000Z,23.9
2018-06-19T19:56:00.000Z,23.9
2018-06-19T20:01:00.000Z,23.8
2018-06-19T20:06:00.000Z,23.8
2018-06-19T20:11:00.000Z,23.7
2018-06-19T20:16:00.000Z,23.6
2018-06-19T20:21:00.000Z,23.6
2018-06-19T20:26:00.000Z,23.5
2018-06-19T20:31:00.000Z,23.4
2018-06-19T20:36:00.000Z,23.3
2018-06-19T20:41:00.000Z,23.3
2018-06-19T20:46:00.000Z,23.2
2018-06-19T20:51:00.000Z,23.1
2018-06-19T20:56:00.000Z,23.0
2018-06-19T21:01:00.000Z,22.9
2018-06-19T21:06:00.000Z,22.8
2018-06-19T21:11:00.000Z,22.7
2018-06-19T21:16:00.000Z,22.6
2018-06-19T21:21:00.000Z,22.5
2018-06-19T21:26:00.000Z,22.4
2018-06-19T21:31:00.000Z,22.3
2018-06-19T21:36:00.000Z,22.3
2018-06-19T21:41:00.000Z,22.2
2018-06-19T21:46:00.000Z,22.1
2018-06-19T21:51:00.000Z,22.1
2018-06-19T21:56:00.000Z,22.0
2018-06-19T22:01:00.000Z,21.9
2018-06-19T22:06:00.000Z,21.9
2018-06-19T22:11:00.000Z,21.8
2018-06-19T22:16:00.000Z,21.7
2018-06-19T22:21:00.000Z,21.7
2018-06-19T22:26:00.000Z,21.6
2018-06-19T22:31:00.000Z,21.6
2018-06-19T22:36:00.000Z,21.5
2018-06-19T22:41:00.000Z,21.5
2018-06-19T22:46:00.000Z,21.5
2018-06-19T22:51:00.000Z,21.5
2018-06-19T22:56:00.000Z,21.5
2018-06-19T23:01:00.000Z,21.5
2018-06-19T23:06:00.000Z,21.5
2018-06-19T23:11:00.000Z,21.4
2018-06-19T23:16:00.000Z,21.3
2018-06-19T23:21:00.000Z,21.2
2018-06-19T23:26:00.000Z,21.1
2018-06-19T23:31:00.000Z,21.1
2018-06-19T23:36:00.000Z,21.0
2018-06-19T23:41:00.000Z,20.9
2018-06-19T23:47:00.000Z,20.8
2018-06-19T23:52:00.000Z,20.8
2018-06-19T23:57:00.000Z,20.7
